Evans, Illinois
Current Conditions -  °F | °C
As of 8:55 AM on Saturday 20 Dec 2014 (Local Time) from KC75 Reporting Station
Haze Haze  
Wind Chill: 29°   Ceiling: 6500
Heat Index: 29°   Visibility: 5mi
Dew Point: 25°   Wind: 0mph
Humidity: 84%   Direction: NA
Pressure: 30.27"   Gusts: NA
Location:  41.0632°N, 89.0208°W
Report Text: KC75 201455Z AUTO 00000KT 5SM BR OVC065 M02/M04 A3027 RMK AO2 T10171040
Loading
Personal Weather Stations






























Interactive Weather Map New forecast layout! Learn more

10-Day Weather Forecast

Advertisements
Track Severe Weather on mobile